Terminal Aerodrome Forecast
Issued by NWS Hastings, NE

Home | Current Version | Previous Version | Text Only | Print | Product List | Glossary On
Versions: 1 2 3 4 5 6 7 8 9 10 11 12
000
FTUS43 KGID 041120
TAFGRI
TAF
KGRI 041120Z 0412/0512 34010KT P6SM SKC
     FM041500 35012KT P6SM SKC
     FM041700 35013G19KT P6SM SKC
     FM042300 36010KT P6SM SKC
     FM050200 VRB05KT P6SM SKC=

USA.gov is the U.S. government's official web portal to all federal, state and local government web resources and services.